createdAt,value
2022-08-03T00:01:35.736Z,2.15
2022-08-03T00:04:03.632Z,2.38
2022-08-03T00:06:36.963Z,2.25
2022-08-03T00:09:06.134Z,2.10
2022-08-03T00:11:34.142Z,1.80
2022-08-03T00:14:02.255Z,1.83
2022-08-03T00:16:30.307Z,2.22
2022-08-03T00:18:58.196Z,2.13
2022-08-03T00:21:29.851Z,2.17
2022-08-03T00:23:59.101Z,2.25
2022-08-03T00:26:26.927Z,2.03
2022-08-03T00:28:54.804Z,2.00
2022-08-03T00:31:40.051Z,1.90
2022-08-03T00:34:10.531Z,1.92
2022-08-03T00:36:40.415Z,1.70
2022-08-03T00:39:10.167Z,1.98
2022-08-03T00:41:37.997Z,2.10
2022-08-03T00:44:06.079Z,2.13
2022-08-03T00:46:33.901Z,2.15
2022-08-03T00:49:02.125Z,1.88
2022-08-03T00:51:30.024Z,1.85
2022-08-03T00:53:57.815Z,1.80
2022-08-03T00:56:27.791Z,1.63
2022-08-03T00:58:58.802Z,1.90
2022-08-03T01:01:26.686Z,1.92
2022-08-03T01:04:00.580Z,1.88
2022-08-03T01:06:35.281Z,2.17
2022-08-03T01:09:10.781Z,1.98
2022-08-03T01:12:00.126Z,2.10
2022-08-03T01:14:35.126Z,1.80
2022-08-03T01:17:11.266Z,2.00
2022-08-03T01:19:50.712Z,2.10
2022-08-03T01:22:46.143Z,2.17
2022-08-03T01:25:25.893Z,1.70
2022-08-03T01:28:10.901Z,1.73
2022-08-03T01:30:44.860Z,1.90
2022-08-03T01:33:16.827Z,2.10
2022-08-03T01:35:48.592Z,1.83
2022-08-03T01:38:21.490Z,1.73
2022-08-03T01:40:52.452Z,1.85
2022-08-03T01:44:27.759Z,1.73
2022-08-03T01:46:15.475Z,1.80
2022-08-03T01:48:45.892Z,2.00
2022-08-03T01:51:16.750Z,2.00
2022-08-03T01:53:45.687Z,1.88
2022-08-03T01:56:15.128Z,1.90
2022-08-03T01:58:44.920Z,1.73
2022-08-03T02:01:17.030Z,1.95
2022-08-03T02:03:58.058Z,1.65
2022-08-03T02:07:00.488Z,1.77
2022-08-03T02:09:19.067Z,1.98
2022-08-03T02:11:48.540Z,1.58
2022-08-03T02:14:18.560Z,1.70
2022-08-03T02:16:50.262Z,1.80
2022-08-03T02:19:20.549Z,1.73
2022-08-03T02:21:57.271Z,1.75
2022-08-03T02:24:29.695Z,2.05
2022-08-03T02:26:59.320Z,1.83
2022-08-03T02:29:39.417Z,1.80
2022-08-03T02:32:11.682Z,1.65
2022-08-03T02:34:41.116Z,1.70
2022-08-03T02:37:11.698Z,2.38
2022-08-03T02:39:42.151Z,2.20
2022-08-03T02:42:12.206Z,2.30
2022-08-03T02:44:43.792Z,1.83
2022-08-03T02:47:15.560Z,1.95
2022-08-03T02:49:51.504Z,2.33
2022-08-03T02:52:23.374Z,2.15
2022-08-03T02:54:54.637Z,2.40
2022-08-03T02:57:23.925Z,2.13
2022-08-03T02:59:53.049Z,2.42
2022-08-03T03:02:22.543Z,2.28
2022-08-03T03:05:50.533Z,2.00
2022-08-03T03:07:51.463Z,2.08
2022-08-03T03:10:20.835Z,2.08
2022-08-03T03:12:51.429Z,2.28
2022-08-03T03:15:19.367Z,1.95
2022-08-03T03:17:49.705Z,1.92
2022-08-03T03:20:29.544Z,2.10
2022-08-03T03:22:59.847Z,1.95
2022-08-03T03:25:29.267Z,1.77
2022-08-03T03:27:57.827Z,2.30
2022-08-03T03:30:26.166Z,1.73
2022-08-03T03:32:55.688Z,2.22
2022-08-03T03:35:23.656Z,2.13
2022-08-03T03:37:51.497Z,2.22
2022-08-03T03:40:19.520Z,2.08
2022-08-03T03:42:47.609Z,2.42
2022-08-03T03:45:16.928Z,2.50
2022-08-03T03:47:44.766Z,2.10
2022-08-03T03:50:14.564Z,2.58
2022-08-03T03:52:42.463Z,2.38
2022-08-03T03:55:10.680Z,1.88
2022-08-03T03:57:38.472Z,2.33
2022-08-03T04:00:07.749Z,2.53
2022-08-03T04:02:35.771Z,2.33
2022-08-03T04:05:20.824Z,1.85
2022-08-03T04:08:16.875Z,2.40
2022-08-03T04:11:01.818Z,2.53
2022-08-03T04:13:33.575Z,2.13
2022-08-03T04:16:03.044Z,2.20
2022-08-03T04:18:33.775Z,2.20
2022-08-03T04:21:05.296Z,2.28
2022-08-03T04:23:36.751Z,2.03
2022-08-03T04:26:09.656Z,2.40
2022-08-03T04:28:39.822Z,2.38
2022-08-03T04:31:08.281Z,2.40
2022-08-03T04:33:39.597Z,2.40
2022-08-03T04:36:09.883Z,2.40
2022-08-03T04:38:45.223Z,2.50
2022-08-03T04:41:14.046Z,2.55
2022-08-03T04:43:42.188Z,2.75
2022-08-03T04:46:11.351Z,2.65
2022-08-03T04:48:44.364Z,2.40
2022-08-03T04:51:12.983Z,2.70
2022-08-03T04:53:42.120Z,2.05
2022-08-03T04:56:10.098Z,3.10
2022-08-03T04:58:37.882Z,2.85
2022-08-03T05:01:05.948Z,2.97
2022-08-03T05:03:33.751Z,2.67
2022-08-03T05:06:11.008Z,3.13
2022-08-03T05:08:46.104Z,2.80
2022-08-03T05:11:16.391Z,3.10
2022-08-03T05:13:44.162Z,2.58
2022-08-03T05:16:12.098Z,2.78
2022-08-03T05:18:39.835Z,4.03
2022-08-03T05:21:07.839Z,2.83
2022-08-03T05:23:35.716Z,2.63
2022-08-03T05:26:03.470Z,3.13
2022-08-03T05:28:32.976Z,3.15
2022-08-03T05:31:00.773Z,2.97
2022-08-03T05:33:28.735Z,2.72
2022-08-03T05:36:03.309Z,3.00
2022-08-03T05:38:33.908Z,3.03
2022-08-03T05:41:21.324Z,2.63
2022-08-03T05:43:52.824Z,2.90
2022-08-03T05:46:21.152Z,2.88
2022-08-03T05:48:49.261Z,2.80
2022-08-03T05:51:17.119Z,2.83
2022-08-03T05:53:45.821Z,2.72
2022-08-03T05:56:16.234Z,2.90
2022-08-03T05:58:45.559Z,3.35
2022-08-03T06:01:15.264Z,2.88
2022-08-03T06:03:43.228Z,2.60
2022-08-03T06:06:11.754Z,2.83
2022-08-03T06:08:39.947Z,3.42
2022-08-03T06:11:07.838Z,2.88
2022-08-03T06:13:36.267Z,2.72
2022-08-03T06:16:04.439Z,3.00
2022-08-03T06:18:33.683Z,3.10
2022-08-03T06:21:14.724Z,3.20
2022-08-03T06:23:52.632Z,2.97
2022-08-03T06:26:21.867Z,3.63
2022-08-03T06:28:53.368Z,2.70
2022-08-03T06:31:22.871Z,2.83
2022-08-03T06:34:31.186Z,2.30
2022-08-03T06:36:40.078Z,3.00
2022-08-03T06:39:08.294Z,2.45
2022-08-03T06:41:37.530Z,2.55
2022-08-03T06:44:06.249Z,2.50
2022-08-03T06:46:34.120Z,2.60
2022-08-03T06:49:03.486Z,2.25
2022-08-03T06:52:03.823Z,2.75
2022-08-03T06:54:19.452Z,2.53
2022-08-03T06:56:47.233Z,2.42
2022-08-03T07:00:06.346Z,2.40
2022-08-03T07:02:02.899Z,2.17
2022-08-03T07:04:32.088Z,2.22
2022-08-03T07:06:59.945Z,2.00
2022-08-03T07:09:28.126Z,2.33
2022-08-03T07:11:57.092Z,1.80
2022-08-03T07:14:24.916Z,2.20
2022-08-03T07:16:52.805Z,2.17
2022-08-03T07:19:20.616Z,1.92
2022-08-03T07:21:49.826Z,1.88
2022-08-03T07:24:21.859Z,1.92
2022-08-03T07:26:49.707Z,2.22
2022-08-03T07:29:17.636Z,2.10
2022-08-03T07:31:45.871Z,2.13
2022-08-03T07:34:13.723Z,2.00
2022-08-03T07:36:41.569Z,1.98
2022-08-03T07:39:15.764Z,1.98
2022-08-03T07:41:46.117Z,1.95
2022-08-03T07:44:13.991Z,2.00
2022-08-03T07:46:41.836Z,1.90
2022-08-03T07:49:09.898Z,2.05
2022-08-03T07:51:37.932Z,1.88
2022-08-03T07:54:05.941Z,2.20
2022-08-03T07:56:35.211Z,2.20
2022-08-03T07:59:03.282Z,2.55
2022-08-03T08:01:33.031Z,2.50
2022-08-03T08:04:00.824Z,2.13
2022-08-03T08:06:28.629Z,2.22
2022-08-03T08:08:59.645Z,1.70
2022-08-03T08:11:27.452Z,2.13
2022-08-03T08:13:56.665Z,1.77
2022-08-03T08:16:24.537Z,2.08
2022-08-03T08:18:52.338Z,1.95
2022-08-03T08:21:20.530Z,1.75
2022-08-03T08:23:55.641Z,2.10
2022-08-03T08:26:25.717Z,1.90
2022-08-03T08:28:53.637Z,1.50
2022-08-03T08:31:22.861Z,1.73
2022-08-03T08:34:06.175Z,1.90
2022-08-03T08:36:34.593Z,1.77
2022-08-03T08:39:03.125Z,2.25
2022-08-03T08:41:33.767Z,2.10
2022-08-03T08:44:01.923Z,2.00
2022-08-03T08:46:33.925Z,1.77
2022-08-03T08:49:04.544Z,1.40
2022-08-03T08:51:59.296Z,1.90
2022-08-03T08:54:27.016Z,1.85
2022-08-03T08:56:59.275Z,1.80
2022-08-03T08:59:48.454Z,1.83
2022-08-03T09:02:19.109Z,1.90
2022-08-03T09:04:48.866Z,1.80
2022-08-03T09:07:20.442Z,2.00
2022-08-03T09:10:11.727Z,1.75
2022-08-03T09:12:42.473Z,1.85
2022-08-03T09:15:22.454Z,1.60
2022-08-03T09:17:53.543Z,1.80
2022-08-03T09:20:23.442Z,1.83
2022-08-03T09:22:59.268Z,1.60
2022-08-03T09:25:31.873Z,1.92
2022-08-03T09:28:08.613Z,1.70
2022-08-03T09:30:36.952Z,1.88
2022-08-03T09:33:09.148Z,1.90
2022-08-03T09:35:58.502Z,1.67
2022-08-03T09:38:27.544Z,1.80
2022-08-03T09:41:00.034Z,1.75
2022-08-03T09:43:28.912Z,1.63
2022-08-03T09:46:04.637Z,1.83
2022-08-03T09:48:35.094Z,1.33
2022-08-03T09:51:13.100Z,1.50
2022-08-03T09:53:59.255Z,1.42
2022-08-03T09:56:42.751Z,1.40
2022-08-03T09:59:11.593Z,1.30
2022-08-03T10:01:41.848Z,1.60
2022-08-03T10:04:17.007Z,1.45
2022-08-03T10:06:45.826Z,1.40
2022-08-03T10:09:17.215Z,1.48
2022-08-03T10:11:46.896Z,1.42
2022-08-03T10:14:19.355Z,1.70
2022-08-03T10:16:48.882Z,1.30
2022-08-03T10:19:18.459Z,1.20
2022-08-03T10:21:51.086Z,1.52
2022-08-03T10:24:25.827Z,1.65
2022-08-03T10:26:58.142Z,1.33
2022-08-03T10:29:29.308Z,1.63
2022-08-03T10:32:00.063Z,1.63
2022-08-03T10:34:36.134Z,1.63
2022-08-03T10:37:09.171Z,1.60
2022-08-03T10:39:37.376Z,1.58
2022-08-03T10:42:14.724Z,1.70
2022-08-03T10:44:43.473Z,1.60
2022-08-03T10:47:12.376Z,1.92
2022-08-03T10:49:42.580Z,1.50
2022-08-03T10:52:13.393Z,1.80
2022-08-03T10:55:16.321Z,1.70
2022-08-03T10:57:49.775Z,1.58
2022-08-03T11:00:19.639Z,1.48
2022-08-03T11:03:10.937Z,2.00
2022-08-03T11:05:42.447Z,1.50
2022-08-03T11:08:31.065Z,1.60
2022-08-03T11:11:01.813Z,1.50
2022-08-03T11:13:33.910Z,1.50
2022-08-03T11:16:07.176Z,1.38
2022-08-03T11:18:37.572Z,1.48
2022-08-03T11:21:06.777Z,1.60
2022-08-03T11:24:04.362Z,1.60
2022-08-03T11:26:34.382Z,1.10
2022-08-03T11:29:29.741Z,1.35
2022-08-03T11:31:58.031Z,1.20
2022-08-03T11:34:26.096Z,1.63
2022-08-03T11:37:28.786Z,1.23
2022-08-03T11:39:57.889Z,1.20
2022-08-03T11:42:47.943Z,1.30
2022-08-03T11:45:15.871Z,1.40
2022-08-03T11:47:50.639Z,1.27
2022-08-03T11:50:21.532Z,1.40
2022-08-03T11:52:51.039Z,1.17
2022-08-03T11:55:22.426Z,1.17
2022-08-03T11:59:17.557Z,1.67
2022-08-03T12:00:38.849Z,1.30
2022-08-03T12:03:09.263Z,1.40
2022-08-03T12:05:50.998Z,1.45
2022-08-03T12:08:32.444Z,1.10
2022-08-03T12:11:02.346Z,1.15
2022-08-03T12:13:56.618Z,1.23
2022-08-03T12:16:29.674Z,1.10
2022-08-03T12:18:58.779Z,1.10
2022-08-03T12:21:26.735Z,0.98
2022-08-03T12:24:00.559Z,1.08
2022-08-03T12:26:29.548Z,1.20
2022-08-03T12:28:57.789Z,1.42
2022-08-03T12:31:25.999Z,1.38
2022-08-03T12:33:59.350Z,1.52
2022-08-03T12:36:27.919Z,1.13
2022-08-03T12:38:59.176Z,0.90
2022-08-03T12:41:34.088Z,1.17
2022-08-03T12:44:03.692Z,1.23
2022-08-03T12:46:33.385Z,1.23
2022-08-03T12:49:03.594Z,1.20
2022-08-03T12:51:33.101Z,1.20
2022-08-03T12:54:02.638Z,1.00
2022-08-03T12:56:30.557Z,1.00
2022-08-03T12:58:58.380Z,0.90
2022-08-03T13:01:27.930Z,0.95
2022-08-03T13:03:55.798Z,1.10
2022-08-03T13:06:26.471Z,0.90
2022-08-03T13:09:06.781Z,1.20
2022-08-03T13:11:53.456Z,1.20
2022-08-03T13:14:23.824Z,1.00
2022-08-03T13:16:52.082Z,1.15
2022-08-03T13:19:19.944Z,1.20
2022-08-03T13:22:01.866Z,0.98
2022-08-03T13:24:34.277Z,0.90
2022-08-03T13:27:22.440Z,1.20
2022-08-03T13:29:50.245Z,0.90
2022-08-03T13:32:18.158Z,1.85
2022-08-03T13:34:46.075Z,0.90
2022-08-03T13:37:14.147Z,0.90
2022-08-03T13:39:58.471Z,1.30
2022-08-03T13:42:28.918Z,1.30
2022-08-03T13:44:56.817Z,1.33
2022-08-03T13:47:24.677Z,0.98
2022-08-03T13:50:00.174Z,1.25
2022-08-03T13:52:31.588Z,0.77
2022-08-03T13:55:01.037Z,1.00
2022-08-03T13:58:04.029Z,1.10
2022-08-03T14:00:26.353Z,0.93
2022-08-03T14:03:02.801Z,1.20
2022-08-03T14:05:33.519Z,1.20
2022-08-03T14:08:04.286Z,0.82
2022-08-03T14:10:35.081Z,1.00
2022-08-03T14:13:02.926Z,1.30
2022-08-03T14:15:30.800Z,1.17
2022-08-03T14:17:59.108Z,1.20
2022-08-03T14:20:38.496Z,0.98
2022-08-03T14:23:07.833Z,0.88
2022-08-03T14:25:43.535Z,0.90
2022-08-03T14:28:19.640Z,1.10
2022-08-03T14:30:48.601Z,1.00
2022-08-03T14:33:16.807Z,1.02
2022-08-03T14:35:44.732Z,0.88
2022-08-03T14:38:12.544Z,1.25
2022-08-03T14:40:41.810Z,1.65
2022-08-03T14:43:09.640Z,0.88
2022-08-03T14:45:37.902Z,1.05
2022-08-03T14:50:33.249Z,1.23
2022-08-03T14:50:55.246Z,0.88
2022-08-03T14:53:23.727Z,0.90
2022-08-03T14:55:53.574Z,1.20
2022-08-03T14:58:22.399Z,1.02
2022-08-03T15:00:52.121Z,1.20
2022-08-03T15:03:23.595Z,1.20
2022-08-03T15:05:52.916Z,1.40
2022-08-03T15:08:21.221Z,1.10
2022-08-03T15:10:49.577Z,1.08
2022-08-03T15:13:19.571Z,0.88
2022-08-03T15:15:48.143Z,1.00
2022-08-03T15:18:16.008Z,1.00
2022-08-03T15:20:46.006Z,1.10
2022-08-03T15:23:15.632Z,1.05
2022-08-03T15:26:30.330Z,1.20
2022-08-03T15:28:34.195Z,1.40
2022-08-03T15:31:05.342Z,1.27
2022-08-03T15:33:33.328Z,1.00
2022-08-03T15:36:03.334Z,0.98
2022-08-03T15:38:31.290Z,0.90
2022-08-03T15:40:59.244Z,0.93
2022-08-03T15:43:27.077Z,1.20
2022-08-03T15:46:27.799Z,0.90
2022-08-03T15:48:44.112Z,1.05
2022-08-03T15:51:12.260Z,1.10
2022-08-03T15:53:40.407Z,1.20
2022-08-03T15:56:13.249Z,0.98
2022-08-03T15:59:03.318Z,1.52
2022-08-03T16:01:32.877Z,1.10
2022-08-03T16:04:00.799Z,1.17
2022-08-03T16:06:29.814Z,1.10
2022-08-03T16:09:05.331Z,1.00
2022-08-03T16:11:33.407Z,0.95
2022-08-03T16:14:13.375Z,1.00
2022-08-03T16:16:50.504Z,1.30
2022-08-03T16:19:18.335Z,1.13
2022-08-03T16:21:48.358Z,1.10
2022-08-03T16:24:27.556Z,1.02
2022-08-03T16:26:55.605Z,1.17
2022-08-03T16:29:24.020Z,1.10
2022-08-03T16:31:53.790Z,1.30
2022-08-03T16:34:22.088Z,1.30
2022-08-03T16:36:50.005Z,0.88
2022-08-03T16:39:17.926Z,1.10
2022-08-03T16:41:54.525Z,1.00
2022-08-03T16:44:30.931Z,1.08
2022-08-03T16:47:00.566Z,0.82
2022-08-03T16:49:54.781Z,1.02
2022-08-03T16:52:16.477Z,1.00
2022-08-03T16:54:50.743Z,1.00
2022-08-03T16:57:29.907Z,0.90
2022-08-03T17:00:12.015Z,0.95
2022-08-03T17:02:48.417Z,0.80
2022-08-03T17:05:16.430Z,0.82
2022-08-03T17:07:50.573Z,0.85
2022-08-03T17:10:27.054Z,0.70
2022-08-03T17:12:55.824Z,0.95
2022-08-03T17:15:38.150Z,0.80
2022-08-03T17:18:18.201Z,1.35
2022-08-03T17:20:50.951Z,0.75
2022-08-03T17:23:36.049Z,0.90
2022-08-03T17:26:11.593Z,1.10
2022-08-03T17:28:50.177Z,0.90
2022-08-03T17:31:31.259Z,0.90
2022-08-03T17:34:04.445Z,1.00
2022-08-03T17:37:02.615Z,0.88
2022-08-03T17:39:48.506Z,0.80
2022-08-03T17:42:30.614Z,0.85
2022-08-03T17:45:01.657Z,0.82
2022-08-03T17:47:42.405Z,1.17
2022-08-03T17:50:24.585Z,1.38
2022-08-03T17:53:01.737Z,0.95
2022-08-03T17:55:55.170Z,0.82
2022-08-03T17:58:41.394Z,0.70
2022-08-03T18:02:03.647Z,1.17
2022-08-03T18:04:30.083Z,1.02
2022-08-03T18:07:11.178Z,1.33
2022-08-03T18:10:06.181Z,1.00
2022-08-03T18:12:51.698Z,1.05
2022-08-03T18:15:25.344Z,0.90
2022-08-03T18:18:02.128Z,1.00
2022-08-03T18:20:41.143Z,0.90
2022-08-03T18:23:25.154Z,1.00
2022-08-03T18:26:02.306Z,0.82
2022-08-03T18:28:33.347Z,1.13
2022-08-03T18:31:05.665Z,1.10
2022-08-03T18:34:16.482Z,1.02
2022-08-03T18:36:30.179Z,1.00
2022-08-03T18:39:01.784Z,1.00
2022-08-03T18:41:33.736Z,1.20
2022-08-03T18:44:08.449Z,1.20
2022-08-03T18:46:48.812Z,0.70
2022-08-03T18:49:29.767Z,0.90
2022-08-03T18:55:02.482Z,0.93
2022-08-03T18:57:44.858Z,0.80
2022-08-03T19:00:16.599Z,0.95
2022-08-03T19:02:50.294Z,1.23
2022-08-03T19:05:21.257Z,1.65
2022-08-03T19:07:58.139Z,1.27
2022-08-03T19:10:32.067Z,1.20
2022-08-03T19:13:05.398Z,1.20
2022-08-03T19:15:51.524Z,1.27
2022-08-03T19:18:22.159Z,1.40
2022-08-03T19:20:54.732Z,1.45
2022-08-03T19:23:25.605Z,1.02
2022-08-03T19:25:55.139Z,1.15
2022-08-03T19:28:30.053Z,1.58
2022-08-03T19:31:02.555Z,1.50
2022-08-03T19:33:57.278Z,1.25
2022-08-03T19:36:27.298Z,1.05
2022-08-03T19:38:57.461Z,1.00
2022-08-03T19:41:41.855Z,1.15
2022-08-03T19:44:12.571Z,1.10
2022-08-03T19:46:53.455Z,1.05
2022-08-03T19:50:06.001Z,1.17
2022-08-03T19:52:16.685Z,1.23
2022-08-03T19:54:54.658Z,1.20
2022-08-03T19:57:27.306Z,1.63
2022-08-03T19:59:57.476Z,1.52
2022-08-03T20:02:26.223Z,1.30
2022-08-03T20:04:56.936Z,1.20
2022-08-03T20:07:25.919Z,1.38
2022-08-03T20:09:56.669Z,1.42
2022-08-03T20:12:28.875Z,1.75
2022-08-03T20:14:57.734Z,1.60
2022-08-03T20:17:55.923Z,1.55
2022-08-03T20:20:14.296Z,1.40
2022-08-03T20:22:47.675Z,1.98
2022-08-03T20:25:21.099Z,1.77
2022-08-03T20:28:07.984Z,1.27
2022-08-03T20:30:44.377Z,1.20
2022-08-03T20:33:18.926Z,1.45
2022-08-03T20:35:49.238Z,1.20
2022-08-03T20:38:17.860Z,1.25
2022-08-03T20:40:46.625Z,1.58
2022-08-03T20:43:16.012Z,1.10
2022-08-03T20:45:58.339Z,1.63
2022-08-03T20:48:29.765Z,1.33
2022-08-03T20:50:57.951Z,1.20
2022-08-03T20:53:56.850Z,1.30
2022-08-03T20:56:15.745Z,1.20
2022-08-03T20:58:50.788Z,1.40
2022-08-03T21:01:27.738Z,1.20
2022-08-03T21:04:09.442Z,1.50
2022-08-03T21:06:45.644Z,1.50
2022-08-03T21:09:25.184Z,1.55
2022-08-03T21:12:13.184Z,1.38
2022-08-03T21:13:08.290Z,0.77
2022-08-03T21:14:52.345Z,1.30
2022-08-03T21:17:40.134Z,1.40
2022-08-03T21:20:10.420Z,1.65
2022-08-03T21:22:39.345Z,1.30
2022-08-03T21:25:10.285Z,1.30
2022-08-03T21:27:38.582Z,1.52
2022-08-03T21:30:11.684Z,1.33
2022-08-03T21:32:40.738Z,1.40
2022-08-03T21:35:11.017Z,1.35
2022-08-03T21:37:39.542Z,1.67
2022-08-03T21:40:09.008Z,1.77
2022-08-03T21:42:37.020Z,1.35
2022-08-03T21:45:08.238Z,1.35
2022-08-03T21:47:38.740Z,1.40
2022-08-03T21:50:10.466Z,1.55
2022-08-03T21:52:42.740Z,1.23
2022-08-03T21:55:20.450Z,1.73
2022-08-03T21:57:54.094Z,1.15
2022-08-03T22:00:24.101Z,1.35
2022-08-03T22:02:55.471Z,1.52
2022-08-03T22:05:29.135Z,1.40
2022-08-03T22:08:13.615Z,1.38
2022-08-03T22:10:42.099Z,1.73
2022-08-03T22:13:09.941Z,1.75
2022-08-03T22:15:39.179Z,1.55
2022-08-03T22:18:07.156Z,1.40
2022-08-03T22:20:35.320Z,1.10
2022-08-03T22:23:05.379Z,1.67
2022-08-03T22:25:34.741Z,1.48
2022-08-03T22:28:06.770Z,1.38
2022-08-03T22:30:36.335Z,1.10
2022-08-03T22:33:08.352Z,1.63
2022-08-03T22:35:44.333Z,1.20
2022-08-03T22:38:16.379Z,1.75
2022-08-03T22:40:44.931Z,1.35
2022-08-03T22:43:12.906Z,1.45
2022-08-03T22:46:06.445Z,1.90
2022-08-03T22:48:35.831Z,1.40
2022-08-03T22:51:09.559Z,1.40
2022-08-03T22:53:38.054Z,1.77
2022-08-03T22:56:06.141Z,1.40
2022-08-03T22:58:34.006Z,1.33
2022-08-03T23:01:05.858Z,1.48
2022-08-03T23:04:00.228Z,1.95
2022-08-03T23:06:28.151Z,1.52
2022-08-03T23:08:56.704Z,1.90
2022-08-03T23:11:26.249Z,1.60
2022-08-03T23:13:57.643Z,1.70
2022-08-03T23:16:28.934Z,1.30
2022-08-03T23:19:16.570Z,1.30
2022-08-03T23:22:00.362Z,2.22
2022-08-03T23:24:31.175Z,1.88
2022-08-03T23:26:59.295Z,1.73
2022-08-03T23:29:27.638Z,1.90
2022-08-03T23:31:57.531Z,1.60
2022-08-03T23:34:45.881Z,1.85
2022-08-03T23:37:15.189Z,1.60
2022-08-03T23:39:45.772Z,2.13
2022-08-03T23:42:16.187Z,1.67
2022-08-03T23:44:44.676Z,1.65
2022-08-03T23:47:12.715Z,1.70
2022-08-03T23:49:44.585Z,2.22
2022-08-03T23:52:21.889Z,1.70
2022-08-03T23:55:04.163Z,2.10
2022-08-03T23:57:42.828Z,1.73
